Pukwana, South Dakota
Current Conditions -  °F | °C
As of 5:15 AM on Wednesday 26 Nov 2014 (Local Time) from K9V9 Reporting Station
Overcast Overcast  
Wind Chill:   Ceiling: 1200
Heat Index: 21°   Visibility: 10mi
Dew Point: 17°   Wind: 18mph
Humidity: 85%   Direction: 340°NNW
Pressure: 30.12"   Gusts: 25mph
Location:  43.78°N, 99.18°W
Report Text: K9V9 261115Z AUTO 34016G22KT 10SM OVC012 M06/M08 A3012 RMK AO2 T10631085
Loading
Personal Weather Stations






























Interactive Weather Map New forecast layout! Learn more

10-Day Weather Forecast

Advertisements
Track Severe Weather on mobile